Time;durP1;ratioP1;P1;durP2;ratioP2;P2;SDS_P1;SDS_P2;PMS_P1;PMS_P2;Temp;Humidity;BMP_temperature;BMP_pressure;BME280_temperature;BME280_humidity;BME280_pressure;Samples;Min_cycle;Max_cycle;Signal;HPM_P1;HPM_P2
2022/09/15 00:01:37;;;;;;;0.70;0.70;;;;;;;34.16;27.50;96820.97;5054629;28;20127;-78
2022/09/15 00:04:04;;;;;;;1.88;0.90;;;;;;;34.23;27.65;96813.91;5072562;28;20040;-78
2022/09/15 00:06:31;;;;;;;0.82;0.82;;;;;;;34.20;27.93;96810.03;5072970;28;20029;-78
2022/09/15 00:08:58;;;;;;;1.13;1.00;;;;;;;33.95;27.82;96800.69;5064230;28;20059;-78
2022/09/15 00:11:28;;;;;;;0.93;0.90;;;;;;;33.20;29.18;96790.13;5063961;28;20057;-78
2022/09/15 00:13:57;;;;;;;0.82;0.82;;;;;;;32.84;29.34;96791.38;5060175;28;20098;-78
2022/09/15 00:16:25;;;;;;;6.95;1.15;;;;;;;32.57;30.23;96787.34;5064049;28;20028;-78
2022/09/15 00:18:51;;;;;;;0.77;0.77;;;;;;;32.65;29.58;96777.75;5067384;28;20408;-78
2022/09/15 00:21:21;;;;;;;2.83;0.82;;;;;;;32.74;29.59;96766.06;5066356;28;20056;-78
2022/09/15 00:23:47;;;;;;;1.17;1.08;;;;;;;32.74;29.92;96763.22;5064893;28;20086;-78
2022/09/15 00:26:16;;;;;;;0.90;0.90;;;;;;;32.97;29.44;96755.34;5085699;28;20051;-78
2022/09/15 00:28:43;;;;;;;1.38;0.98;;;;;;;33.30;29.09;96754.38;5075774;28;20032;-78
2022/09/15 00:31:13;;;;;;;1.13;0.70;;;;;;;33.42;28.81;96756.59;5065643;28;20036;-78
2022/09/15 00:33:39;;;;;;;1.35;1.25;;;;;;;33.16;29.16;96755.50;5058546;28;20044;-78
2022/09/15 00:36:08;;;;;;;0.80;0.80;;;;;;;32.57;29.92;96751.19;5074458;28;20037;-78
2022/09/15 00:38:35;;;;;;;1.27;0.90;;;;;;;32.69;30.11;96751.91;5074249;28;20492;-78
2022/09/15 00:41:02;;;;;;;2.03;0.85;;;;;;;32.10;31.05;96738.16;5070949;28;20086;-78
2022/09/15 00:44:03;;;;;;;0.77;0.70;;;;;;;32.37;30.71;96739.38;5073867;28;20517;-78
2022/09/15 00:46:37;;;;;;;1.38;0.85;;;;;;;32.41;30.38;96734.16;5061109;28;20486;-78
2022/09/15 00:49:15;;;;;;;0.85;0.82;;;;;;;32.64;30.11;96727.09;5057845;28;20397;-79
2022/09/15 00:52:09;;;;;;;2.33;0.65;;;;;;;32.85;29.89;96736.81;5068134;28;20040;-78
2022/09/15 00:54:49;;;;;;;1.90;0.70;;;;;;;33.38;28.88;96738.25;5074376;28;20094;-78
2022/09/15 00:57:24;;;;;;;;;;;;;;;33.70;28.16;96727.91;5076139;28;20024;-78
2022/09/15 00:59:53;;;;;;;0.90;0.63;;;;;;;34.07;27.31;96724.47;5091294;28;19927;-78
2022/09/15 01:02:25;;;;;;;0.80;0.70;;;;;;;33.60;28.32;96709.66;5074824;28;20032;-78
2022/09/15 01:04:52;;;;;;;0.80;0.52;;;;;;;33.80;27.91;96717.72;5065800;28;20036;-78
2022/09/15 01:07:26;;;;;;;0.60;0.60;;;;;;;33.51;28.32;96712.03;5075427;28;20039;-78
2022/09/15 01:09:58;;;;;;;0.80;0.80;;;;;;;32.84;29.44;96712.50;5060752;28;20033;-78
2022/09/15 01:12:26;;;;;;;0.88;0.77;;;;;;;32.51;29.92;96707.03;5071407;28;20036;-78
2022/09/15 01:14:52;;;;;;;0.60;0.60;;;;;;;32.74;29.55;96692.16;5068517;28;20029;-78
2022/09/15 01:17:46;;;;;;;0.70;0.70;;;;;;;33.06;29.59;96686.03;5064663;28;20059;-78
2022/09/15 01:20:50;;;;;;;1.35;0.55;;;;;;;33.61;28.85;96694.09;5066072;28;20421;-78
2022/09/15 01:23:40;;;;;;;0.68;0.60;;;;;;;34.02;28.14;96694.72;5064540;28;20033;-78
2022/09/15 01:26:26;;;;;;;;;;;;;;;34.26;27.26;96702.47;5065425;28;20040;-78
2022/09/15 01:29:21;;;;;;;0.73;0.73;;;;;;;34.23;27.64;96703.56;5061292;28;19916;-78
2022/09/15 01:34:49;;;;;;;1.98;0.70;;;;;;;33.78;28.00;96700.41;5063918;28;20082;-78
2022/09/15 01:37:20;;;;;;;0.60;0.60;;;;;;;33.41;28.58;96686.75;5066103;28;20025;-78
2022/09/15 01:39:50;;;;;;;1.08;0.55;;;;;;;32.94;29.35;96678.84;5061394;28;20178;-78
2022/09/15 01:42:18;;;;;;;2.45;0.70;;;;;;;32.85;29.78;96682.78;5067327;28;20039;-78
2022/09/15 01:44:53;;;;;;;0.60;0.50;;;;;;;33.31;28.95;96685.53;5062847;28;20037;-78
2022/09/15 01:47:21;;;;;;;0.98;0.60;;;;;;;33.54;28.42;96682.53;5069593;28;20071;-78
2022/09/15 01:49:53;;;;;;;1.77;0.70;;;;;;;33.71;28.37;96685.97;5068502;28;20047;-78
2022/09/15 01:52:22;;;;;;;0.70;0.60;;;;;;;33.88;27.73;96680.88;5067142;28;20044;-78
2022/09/15 01:54:57;;;;;;;0.60;0.60;;;;;;;33.96;27.70;96687.50;5061867;28;20045;-78
2022/09/15 01:57:24;;;;;;;0.60;0.60;;;;;;;34.15;27.60;96685.50;5069046;28;20090;-78
2022/09/15 01:59:52;;;;;;;0.63;0.50;;;;;;;33.99;27.85;96680.75;5066038;28;20123;-78
2022/09/15 02:02:25;;;;;;;0.40;0.40;;;;;;;33.72;28.41;96676.13;5062080;28;20033;-78
2022/09/15 02:04:56;;;;;;;0.65;0.60;;;;;;;33.72;27.91;96676.91;5056384;28;20068;-77
2022/09/15 02:07:35;;;;;;;0.43;0.43;;;;;;;33.82;28.13;96675.22;5054685;28;20376;-78
2022/09/15 02:10:14;;;;;;;1.17;0.70;;;;;;;33.79;28.41;96675.56;5059507;28;20037;-78
2022/09/15 02:13:06;;;;;;;1.00;0.80;;;;;;;33.85;28.22;96681.94;5068177;28;20029;-78
2022/09/15 02:15:45;;;;;;;2.58;0.60;;;;;;;33.63;28.58;96674.41;5066416;28;20624;-78
2022/09/15 02:18:16;;;;;;;0.70;0.70;;;;;;;33.68;28.51;96672.81;5060694;28;20115;-78
2022/09/15 02:20:51;;;;;;;0.60;0.60;;;;;;;33.54;28.47;96671.16;5067599;28;20033;-78
2022/09/15 02:23:27;;;;;;;0.70;0.70;;;;;;;33.24;28.55;96663.38;5064815;28;20021;-78
2022/09/15 02:26:03;;;;;;;1.10;0.70;;;;;;;33.06;29.07;96666.09;5066421;28;20028;-78
2022/09/15 02:28:33;;;;;;;2.22;0.70;;;;;;;33.25;28.45;96662.06;5067373;28;20029;-78
2022/09/15 02:31:01;;;;;;;1.05;0.70;;;;;;;33.59;28.05;96656.06;5067416;28;20090;-78
2022/09/15 02:33:33;;;;;;;0.60;0.50;;;;;;;33.77;28.12;96652.53;5069125;28;20090;-78
2022/09/15 02:36:01;;;;;;;0.95;0.70;;;;;;;33.62;28.26;96652.16;5069385;28;20028;-78
2022/09/15 02:38:32;;;;;;;0.43;0.43;;;;;;;33.38;28.25;96644.34;5067934;28;20028;-78
2022/09/15 02:40:58;;;;;;;0.50;0.50;;;;;;;33.31;28.35;96657.09;5068030;28;20033;-78
2022/09/15 02:43:25;;;;;;;0.70;0.70;;;;;;;33.30;28.05;96657.63;5065422;28;20123;-78
2022/09/15 02:45:51;;;;;;;0.50;0.50;;;;;;;33.54;28.07;96654.81;5057579;28;20175;-78
2022/09/15 02:48:17;;;;;;;0.50;0.50;;;;;;;33.67;27.37;96663.50;5065834;28;20554;-78
2022/09/15 02:50:43;;;;;;;2.95;0.50;;;;;;;33.59;27.81;96650.38;5065536;28;20040;-78
2022/09/15 02:53:09;;;;;;;0.80;0.60;;;;;;;33.71;27.67;96657.50;5066390;28;20037;-78
2022/09/15 02:55:35;;;;;;;0.80;0.77;;;;;;;33.85;27.32;96654.25;5065838;28;20111;-78
2022/09/15 02:58:02;;;;;;;0.70;0.70;;;;;;;34.00;27.21;96656.66;5065150;28;20444;-78
2022/09/15 03:00:28;;;;;;;1.17;0.52;;;;;;;34.16;27.46;96652.09;5064459;28;20029;-78
2022/09/15 03:02:55;;;;;;;0.68;0.65;;;;;;;34.27;27.18;96649.88;5067833;28;20058;-78
2022/09/15 03:05:30;;;;;;;0.65;0.65;;;;;;;33.89;27.64;96653.94;5067663;28;20033;-78
2022/09/15 03:07:56;;;;;;;0.57;0.57;;;;;;;34.06;27.37;96649.63;5057762;28;20149;-78
2022/09/15 03:10:24;;;;;;;0.57;0.57;;;;;;;33.87;27.58;96645.16;5065498;28;20111;-78
2022/09/15 03:12:52;;;;;;;0.57;0.55;;;;;;;33.86;27.49;96646.47;5070089;28;20086;-78
2022/09/15 03:15:23;;;;;;;0.52;0.40;;;;;;;34.15;27.07;96659.88;5067324;28;20398;-78
2022/09/15 03:17:50;;;;;;;0.52;0.50;;;;;;;34.36;26.73;96643.78;5062889;28;20124;-78
2022/09/15 03:20:22;;;;;;;2.00;0.60;;;;;;;34.45;26.93;96657.66;5067020;28;20101;-78
2022/09/15 03:22:49;;;;;;;0.70;0.70;;;;;;;33.96;27.39;96651.25;5064880;28;20047;-78
2022/09/15 03:25:16;;;;;;;0.57;0.57;;;;;;;33.71;27.77;96646.88;5066232;28;20068;-78
2022/09/15 03:27:42;;;;;;;1.15;0.50;;;;;;;33.93;27.56;96648.72;5060387;28;20099;-78
2022/09/15 03:30:09;;;;;;;0.60;0.60;;;;;;;33.91;27.67;96642.78;5066184;28;20032;-78
2022/09/15 03:32:36;;;;;;;0.50;0.50;;;;;;;33.80;27.82;96640.06;5066093;28;20032;-78
2022/09/15 03:35:03;;;;;;;1.10;0.70;;;;;;;33.95;27.58;96641.19;5062923;28;20103;-78
2022/09/15 03:37:29;;;;;;;0.40;0.40;;;;;;;34.21;27.27;96637.00;5066007;28;20171;-78
2022/09/15 03:39:55;;;;;;;0.75;0.60;;;;;;;34.25;27.66;96638.25;5068334;28;20064;-78
2022/09/15 03:42:21;;;;;;;0.80;0.65;;;;;;;34.22;27.33;96644.22;5065912;28;20397;-78
2022/09/15 03:44:47;;;;;;;0.55;0.55;;;;;;;34.11;27.94;96644.38;5063907;28;20037;-78
2022/09/15 03:47:13;;;;;;;0.80;0.63;;;;;;;34.10;27.27;96637.91;5068535;28;20042;-78
2022/09/15 03:49:39;;;;;;;0.60;0.60;;;;;;;34.08;27.49;96641.31;5071539;28;20044;-78
2022/09/15 03:52:05;;;;;;;0.50;0.50;;;;;;;34.30;27.70;96640.25;5059295;28;20398;-78
2022/09/15 03:54:31;;;;;;;0.60;0.60;;;;;;;34.20;27.73;96638.31;5058415;28;20482;-78
2022/09/15 03:56:57;;;;;;;0.85;0.60;;;;;;;34.11;27.62;96638.69;5064756;28;20128;-78
2022/09/15 03:59:24;;;;;;;0.60;0.60;;;;;;;34.26;27.06;96633.31;5061097;28;20544;-78
2022/09/15 04:01:50;;;;;;;0.40;0.40;;;;;;;34.21;27.31;96637.78;5062312;28;20041;-78
2022/09/15 04:04:16;;;;;;;1.05;0.50;;;;;;;34.16;27.34;96640.69;5062520;28;20043;-78
2022/09/15 04:06:43;;;;;;;0.50;0.50;;;;;;;34.29;27.12;96632.22;5069723;28;20032;-78
2022/09/15 04:09:09;;;;;;;0.35;0.35;;;;;;;34.28;27.17;96636.41;5071847;28;20036;-78
2022/09/15 04:11:37;;;;;;;0.70;0.70;;;;;;;34.23;27.31;96629.47;5062947;28;20024;-78
2022/09/15 04:14:03;;;;;;;1.38;0.60;;;;;;;34.25;27.58;96635.38;5065773;28;20020;-78
2022/09/15 04:16:29;;;;;;;0.68;0.50;;;;;;;34.12;27.38;96626.00;5066052;28;20032;-78
2022/09/15 04:18:56;;;;;;;0.68;0.30;;;;;;;34.03;27.59;96629.97;5066756;28;20452;-78
2022/09/15 04:21:25;;;;;;;0.77;0.77;;;;;;;34.05;27.53;96630.22;5068028;28;20029;-78
2022/09/15 04:23:52;;;;;;;0.70;0.70;;;;;;;33.80;27.84;96628.66;5061499;28;20392;-77
2022/09/15 04:26:31;;;;;;;0.65;0.65;;;;;;;33.50;28.88;96616.56;5057504;28;20379;-77
2022/09/15 04:28:58;;;;;;;0.50;0.50;;;;;;;33.33;28.37;96620.34;5058152;28;20032;-78
2022/09/15 04:31:24;;;;;;;0.40;0.40;;;;;;;33.34;28.31;96612.56;5067418;28;20064;-78
2022/09/15 04:33:54;;;;;;;0.52;0.52;;;;;;;33.37;28.75;96611.53;5061385;28;20059;-78
2022/09/15 04:36:24;;;;;;;0.85;0.70;;;;;;;33.22;28.60;96614.75;5062106;28;20546;-77
2022/09/15 04:38:50;;;;;;;0.50;0.50;;;;;;;33.44;28.65;96602.41;5058806;28;20429;-77
2022/09/15 04:41:18;;;;;;;0.55;0.55;;;;;;;33.63;28.41;96603.22;5059293;28;20301;-78
2022/09/15 04:43:44;;;;;;;0.63;0.63;;;;;;;33.67;28.56;96606.56;5064789;28;20071;-78
2022/09/15 04:46:11;;;;;;;0.52;0.40;;;;;;;33.83;28.58;96607.66;5060357;28;20059;-77
2022/09/15 04:48:37;;;;;;;1.10;0.60;;;;;;;33.97;28.13;96612.94;5068816;28;20032;-77
2022/09/15 04:51:10;;;;;;;0.60;0.60;;;;;;;33.98;28.74;96616.56;5069890;28;20048;-77
2022/09/15 04:53:36;;;;;;;1.45;0.50;;;;;;;33.89;29.03;96616.91;5064793;28;20505;-77
2022/09/15 04:56:04;;;;;;;0.82;0.60;;;;;;;33.74;29.15;96622.28;5073007;28;20035;-77
2022/09/15 04:58:34;;;;;;;2.88;0.70;;;;;;;33.73;29.17;96621.50;5075606;28;20037;-77
2022/09/15 05:01:07;;;;;;;0.70;0.70;;;;;;;33.89;29.31;96622.59;5075114;28;20041;-77
2022/09/15 05:03:36;;;;;;;0.75;0.60;;;;;;;34.13;29.02;96625.44;5074309;28;20363;-77
2022/09/15 05:06:03;;;;;;;0.60;0.60;;;;;;;34.22;28.89;96619.34;5075129;28;20052;-77
2022/09/15 05:08:29;;;;;;;1.48;0.60;;;;;;;34.19;29.04;96619.69;5067937;28;20029;-77
2022/09/15 05:11:01;;;;;;;0.50;0.50;;;;;;;34.51;28.82;96620.53;5072568;28;20039;-77
2022/09/15 05:13:27;;;;;;;0.50;0.50;;;;;;;34.70;28.26;96616.34;5072745;28;20546;-77
2022/09/15 05:15:53;;;;;;;0.55;0.50;;;;;;;34.94;28.06;96621.16;5074423;28;20044;-77
2022/09/15 05:18:20;;;;;;;1.00;0.45;;;;;;;35.04;28.08;96613.78;5072995;28;20425;-77
2022/09/15 05:20:46;;;;;;;0.50;0.40;;;;;;;34.98;28.18;96615.16;5072853;28;20017;-77
2022/09/15 05:23:12;;;;;;;1.30;0.60;;;;;;;34.86;27.79;96625.19;5074154;28;20082;-77
2022/09/15 05:25:38;;;;;;;0.63;0.40;;;;;;;34.58;28.51;96615.00;5066188;28;20029;-77
2022/09/15 05:28:05;;;;;;;0.73;0.40;;;;;;;34.79;28.27;96611.56;5054074;28;20033;-77
2022/09/15 05:30:31;;;;;;;0.68;0.68;;;;;;;34.82;28.06;96616.19;5062824;28;20040;-77
2022/09/15 05:32:57;;;;;;;0.90;0.50;;;;;;;34.91;27.90;96610.84;5071073;28;20037;-77
2022/09/15 05:35:23;;;;;;;0.47;0.43;;;;;;;35.04;27.68;96616.63;5075252;28;20055;-78
2022/09/15 05:37:49;;;;;;;0.50;0.50;;;;;;;34.90;27.66;96619.94;5074965;28;20040;-78
2022/09/15 05:40:15;;;;;;;0.40;0.40;;;;;;;34.70;28.40;96619.19;5074830;28;20032;-78
2022/09/15 05:42:41;;;;;;;0.85;0.60;;;;;;;34.66;28.04;96615.13;5065498;28;20025;-77
2022/09/15 05:45:07;;;;;;;0.40;0.40;;;;;;;34.82;28.23;96607.63;5073092;28;20029;-78
2022/09/15 05:47:33;;;;;;;0.68;0.57;;;;;;;34.97;27.85;96616.44;5073709;28;20043;-77
2022/09/15 05:49:59;;;;;;;0.57;0.30;;;;;;;34.65;28.31;96616.44;5069036;28;20045;-77
2022/09/15 05:52:25;;;;;;;0.47;0.40;;;;;;;34.69;28.09;96614.06;5072898;28;20056;-77
2022/09/15 05:54:52;;;;;;;0.30;0.30;;;;;;;34.75;28.13;96612.66;5074447;28;20486;-77
2022/09/15 05:57:18;;;;;;;0.40;0.40;;;;;;;34.75;27.80;96611.91;5074209;28;20021;-77
2022/09/15 05:59:44;;;;;;;1.17;0.40;;;;;;;34.86;28.42;96610.94;5064916;28;20060;-78
2022/09/15 06:02:10;;;;;;;0.40;0.40;;;;;;;34.87;28.26;96610.38;5054011;28;20442;-77
2022/09/15 06:04:36;;;;;;;0.50;0.50;;;;;;;34.85;28.41;96615.88;5065522;28;20051;-77
2022/09/15 06:07:02;;;;;;;0.30;0.30;;;;;;;34.71;28.46;96617.91;5064679;28;20421;-77
2022/09/15 06:09:28;;;;;;;0.38;0.38;;;;;;;34.73;28.47;96612.41;5069121;28;20537;-77
2022/09/15 06:11:54;;;;;;;0.40;0.40;;;;;;;34.81;28.18;96612.56;5074134;28;20021;-77
2022/09/15 06:14:20;;;;;;;0.40;0.40;;;;;;;34.72;28.40;96619.44;5073965;28;20388;-77
2022/09/15 06:16:46;;;;;;;1.15;0.40;;;;;;;34.96;28.52;96614.94;5071152;28;20536;-77
2022/09/15 06:19:12;;;;;;;0.88;0.50;;;;;;;35.01;28.57;96622.63;5074140;28;20035;-77
2022/09/15 06:21:38;;;;;;;0.45;0.45;;;;;;;34.73;28.09;96614.50;5072694;28;20058;-77
2022/09/15 06:24:05;;;;;;;0.60;0.60;;;;;;;34.58;28.40;96611.38;5071680;28;20062;-77
2022/09/15 06:26:32;;;;;;;0.30;0.30;;;;;;;34.48;29.09;96610.97;5073644;28;20028;-77
2022/09/15 06:29:00;;;;;;;0.40;0.40;;;;;;;34.50;29.96;96614.03;5074071;28;20101;-77
2022/09/15 06:31:28;;;;;;;0.40;0.40;;;;;;;34.84;29.87;96608.63;5067455;28;20413;-77
2022/09/15 06:33:56;;;;;;;0.95;0.50;;;;;;;34.89;28.55;96604.94;5054483;28;20021;-77
2022/09/15 06:36:25;;;;;;;0.50;0.50;;;;;;;34.42;29.40;96607.44;5053955;28;20063;-77
2022/09/15 06:38:51;;;;;;;0.82;0.65;;;;;;;34.02;29.05;96614.16;5067423;28;20028;-77
2022/09/15 06:41:17;;;;;;;0.45;0.32;;;;;;;34.20;29.72;96615.50;5073347;28;20032;-77
2022/09/15 06:43:44;;;;;;;0.40;0.40;;;;;;;33.88;29.76;96616.16;5073407;28;20486;-77
2022/09/15 06:46:13;;;;;;;0.65;0.60;;;;;;;34.04;29.61;96617.28;5073896;28;20079;-77
2022/09/15 06:48:40;;;;;;;0.55;0.50;;;;;;;34.20;29.57;96624.84;5073260;28;20094;-77
2022/09/15 06:51:09;;;;;;;0.60;0.60;;;;;;;34.03;29.84;96629.97;5060633;28;20045;-77
2022/09/15 06:53:37;;;;;;;0.30;0.30;;;;;;;34.73;29.47;96645.88;5067200;28;20044;-77
2022/09/15 06:56:04;;;;;;;1.65;0.60;;;;;;;34.68;28.47;96638.94;5073300;28;20133;-78
2022/09/15 06:58:33;;;;;;;2.05;0.43;;;;;;;34.80;28.85;96645.25;5073466;28;20032;-77
2022/09/15 07:01:04;;;;;;;1.55;0.40;;;;;;;34.43;29.35;96636.69;5073395;28;20041;-77
2022/09/15 07:03:30;;;;;;;;;;;;;;;34.45;28.74;96646.25;5073926;28;20389;-77
2022/09/15 07:05:57;;;;;;;0.65;0.50;;;;;;;34.79;28.66;96649.41;5073042;28;19918;-77
2022/09/15 07:08:23;;;;;;;0.40;0.40;;;;;;;35.15;28.14;96664.19;5070537;28;20090;-77
2022/09/15 07:10:49;;;;;;;0.75;0.45;;;;;;;34.94;27.89;96678.22;5066477;28;20703;-77
2022/09/15 07:13:15;;;;;;;0.60;0.40;;;;;;;34.30;28.99;96674.44;5072702;28;20031;-77
2022/09/15 07:15:48;;;;;;;1.05;0.47;;;;;;;34.07;29.61;96687.44;5069452;28;20116;-77
2022/09/15 07:18:14;;;;;;;0.95;0.50;;;;;;;33.60;29.61;96688.94;5053102;28;20027;-77
2022/09/15 07:20:40;;;;;;;0.60;0.60;;;;;;;33.49;30.12;96691.88;5052854;28;20095;-77
2022/09/15 07:23:06;;;;;;;0.50;0.50;;;;;;;33.42;30.53;96693.22;5064067;28;20470;-77
2022/09/15 07:25:33;;;;;;;0.77;0.60;;;;;;;32.16;31.44;96696.28;5057630;28;20086;-78
2022/09/15 07:27:59;;;;;;;0.65;0.60;;;;;;;32.28;31.66;96700.63;5072778;28;20542;-77
2022/09/15 07:30:25;;;;;;;1.10;0.60;;;;;;;33.03;30.09;96702.06;5072783;28;20036;-77
2022/09/15 07:32:51;;;;;;;1.08;0.60;;;;;;;33.20;29.98;96705.56;5072677;28;20394;-77
2022/09/15 07:35:18;;;;;;;0.98;0.70;;;;;;;33.00;30.91;96717.31;5074172;28;20500;-78
2022/09/15 07:37:44;;;;;;;0.88;0.50;;;;;;;33.02;31.68;96720.44;5077177;28;20066;-77
2022/09/15 07:40:10;;;;;;;2.60;0.60;;;;;;;32.90;30.74;96716.09;5064530;28;20375;-77
2022/09/15 07:42:40;;;;;;;0.50;0.43;;;;;;;33.21;30.20;96723.41;5062462;28;20025;-77
2022/09/15 07:45:07;;;;;;;0.88;0.60;;;;;;;32.28;31.60;96725.44;5056972;28;20029;-77
2022/09/15 07:47:33;;;;;;;2.42;0.55;;;;;;;31.18;34.93;96732.81;5057098;28;20033;-77
2022/09/15 07:49:59;;;;;;;1.45;0.50;;;;;;;31.95;32.48;96740.50;5070585;28;20048;-77
2022/09/15 07:52:25;;;;;;;0.65;0.65;;;;;;;31.49;32.30;96732.56;5056916;28;20025;-77
2022/09/15 07:54:51;;;;;;;0.40;0.40;;;;;;;31.54;32.68;96748.81;5056535;28;20390;-77
2022/09/15 07:57:17;;;;;;;0.93;0.50;;;;;;;31.96;33.92;96754.19;5072232;28;20031;-77
2022/09/15 07:59:43;;;;;;;1.30;0.80;;;;;;;32.25;31.82;96754.91;5074977;28;20033;-78
2022/09/15 08:02:20;;;;;;;1.50;0.70;;;;;;;31.31;34.13;96752.91;5076603;28;20139;-77
2022/09/15 08:04:46;;;;;;;2.47;0.65;;;;;;;30.29;34.35;96751.59;5074221;28;20035;-77
2022/09/15 08:07:12;;;;;;;2.85;0.70;;;;;;;30.32;36.19;96773.19;5075439;28;20482;-77
2022/09/15 08:09:39;;;;;;;0.60;0.60;;;;;;;30.85;36.55;96778.06;5071737;28;20055;-77
2022/09/15 08:12:06;;;;;;;2.25;0.60;;;;;;;31.55;33.04;96781.59;5072992;28;20493;-77
2022/09/15 08:14:33;;;;;;;0.77;0.60;;;;;;;32.11;33.24;96790.06;5069435;28;20029;-77
2022/09/15 08:17:00;;;;;;;0.52;0.52;;;;;;;31.73;32.81;96800.91;5057186;28;20533;-77
2022/09/15 08:19:31;;;;;;;0.70;0.68;;;;;;;31.20;36.86;96806.78;5071522;28;20447;-77
2022/09/15 08:21:57;;;;;;;0.93;0.82;;;;;;;30.00;35.93;96810.09;5076308;28;20035;-77
2022/09/15 08:24:23;;;;;;;2.38;0.70;;;;;;;30.40;36.30;96813.97;5076090;28;20032;-77
2022/09/15 08:26:50;;;;;;;1.58;1.20;;;;;;;30.51;34.95;96817.63;5076143;28;20041;-77
2022/09/15 08:29:17;;;;;;;2.80;1.10;;;;;;;30.75;34.22;96834.22;5076113;28;20020;-77
2022/09/15 08:31:45;;;;;;;0.93;0.93;;;;;;;30.47;36.60;96844.66;5074729;28;20072;-77
2022/09/15 08:34:12;;;;;;;2.05;1.10;;;;;;;29.43;38.03;96871.59;5064709;28;20074;-77
2022/09/15 08:36:39;;;;;;;0.88;0.60;;;;;;;27.25;41.92;96876.59;5056048;28;20079;-77
2022/09/15 08:39:05;;;;;;;0.50;0.50;;;;;;;26.45;44.46;96885.19;5055687;28;20438;-77
2022/09/15 08:41:39;;;;;;;1.25;0.45;;;;;;;26.50;44.25;96882.50;5065360;28;20539;-77
2022/09/15 08:44:29;;;;;;;0.30;0.30;;;;;;;27.03;41.85;96879.00;5075686;28;20028;-78
2022/09/15 08:47:10;;;;;;;2.20;0.43;;;;;;;26.74;43.55;96886.09;5075639;28;20145;-78
2022/09/15 08:50:04;;;;;;;1.55;0.30;;;;;;;26.59;43.39;96895.72;5056941;28;20676;-78
2022/09/15 08:52:41;;;;;;;0.73;0.40;;;;;;;27.05;42.35;96904.66;5055484;28;20086;-77
2022/09/15 08:55:35;;;;;;;0.25;0.25;;;;;;;26.44;43.21;96906.16;5055611;28;20087;-77
2022/09/15 08:58:02;;;;;;;0.45;0.40;;;;;;;25.67;45.50;96902.25;5055934;28;20082;-77
2022/09/15 09:00:29;;;;;;;0.40;0.40;;;;;;;26.19;44.02;96906.59;5054333;28;20051;-78
2022/09/15 09:03:23;;;;;;;1.35;0.30;;;;;;;27.67;41.00;96927.91;5064444;28;20067;-77
2022/09/15 09:06:45;;;;;;;0.40;0.40;;;;;;;27.96;39.39;96939.16;5066541;28;20151;-77
2022/09/15 09:09:29;;;;;;;0.32;0.32;;;;;;;29.32;36.46;96940.13;5036822;28;20524;-77
2022/09/15 09:12:36;;;;;;;0.40;0.40;;;;;;;30.13;36.05;96931.41;5075459;28;20029;-77
2022/09/15 09:15:10;;;;;;;0.30;0.20;;;;;;;31.59;33.18;96943.84;5063763;28;20515;-77
2022/09/15 09:18:01;;;;;;;0.40;0.40;;;;;;;29.56;36.38;96953.22;5074067;28;20072;-77
2022/09/15 09:21:05;;;;;;;0.32;0.32;;;;;;;29.86;34.23;96952.53;5074636;28;20032;-77
2022/09/15 09:23:39;;;;;;;0.30;0.30;;;;;;;30.85;34.00;96962.31;5056375;28;20033;-77
2022/09/15 09:26:10;;;;;;;0.40;0.40;;;;;;;31.79;31.86;96960.66;5055496;28;20025;-78
2022/09/15 09:28:45;;;;;;;0.50;0.50;;;;;;;31.91;30.86;96965.06;5055009;28;20509;-77
2022/09/15 09:31:18;;;;;;;0.57;0.50;;;;;;;32.91;30.07;96964.28;5056421;28;20052;-77
2022/09/15 09:34:13;;;;;;;0.73;0.32;;;;;;;33.31;29.97;96972.94;5074736;28;20150;-78
2022/09/15 09:36:39;;;;;;;0.30;0.30;;;;;;;32.69;30.69;96973.63;5064081;28;20040;-78
2022/09/15 09:39:08;;;;;;;0.40;0.40;;;;;;;32.40;30.53;96971.28;5072883;28;20035;-77
2022/09/15 09:41:37;;;;;;;0.50;0.40;;;;;;;32.46;31.67;96972.09;5057078;28;20037;-77
2022/09/15 09:44:10;;;;;;;0.40;0.40;;;;;;;32.99;29.70;96962.44;5054958;28;20040;-77
2022/09/15 09:46:37;;;;;;;0.50;0.40;;;;;;;32.99;30.20;96966.06;5058680;28;20037;-77
2022/09/15 09:49:09;;;;;;;0.38;0.38;;;;;;;33.70;28.50;96969.94;5069716;28;20021;-78
2022/09/15 09:51:50;;;;;;;0.40;0.40;;;;;;;33.79;28.13;96977.41;5054498;28;20116;-78
2022/09/15 09:54:19;;;;;;;0.70;0.30;;;;;;;34.06;27.89;96982.16;5073750;28;20116;-77
2022/09/15 09:56:52;;;;;;;0.35;0.30;;;;;;;33.88;28.71;96980.72;5066048;28;20025;-77
2022/09/15 09:59:44;;;;;;;1.17;0.30;;;;;;;34.56;27.99;96979.72;5054517;28;20032;-78
2022/09/15 10:02:10;;;;;;;0.40;0.40;;;;;;;35.03;26.99;96979.53;5063304;28;20048;-78
2022/09/15 10:04:37;;;;;;;0.30;0.30;;;;;;;34.83;25.50;96971.41;5063318;28;20091;-77
2022/09/15 10:07:04;;;;;;;0.25;0.25;;;;;;;34.36;28.55;96973.63;5054314;28;20482;-77
2022/09/15 10:09:30;;;;;;;0.30;0.30;;;;;;;33.87;27.65;96981.22;5054181;28;20027;-77
2022/09/15 10:12:02;;;;;;;0.30;0.30;;;;;;;34.37;28.42;96978.81;5058967;28;20052;-77
2022/09/15 10:14:37;;;;;;;0.93;0.32;;;;;;;34.07;28.25;96978.03;5072433;28;20094;-77
2022/09/15 10:17:22;;;;;;;0.68;0.30;;;;;;;34.18;29.46;96977.94;5072230;28;20037;-77
2022/09/15 10:19:55;;;;;;;0.20;0.20;;;;;;;33.70;30.20;96969.19;5069667;28;20036;-77
2022/09/15 10:22:39;;;;;;;0.93;0.30;;;;;;;33.61;29.39;96981.63;5056171;28;20483;-77
2022/09/15 10:25:26;;;;;;;0.35;0.35;;;;;;;32.61;30.29;96981.91;5053921;28;20120;-77
2022/09/15 10:28:12;;;;;;;0.43;0.43;;;;;;;33.16;29.13;96972.50;5040481;28;20032;-77
2022/09/15 10:30:54;;;;;;;0.30;0.30;;;;;;;33.71;29.03;96977.19;5071314;28;20051;-78
2022/09/15 10:33:37;;;;;;;0.55;0.30;;;;;;;34.10;28.54;96971.25;5060441;28;20570;-77
2022/09/15 10:36:27;;;;;;;0.30;0.30;;;;;;;34.66;29.14;96963.00;5073645;28;20051;-78
2022/09/15 10:39:20;;;;;;;0.32;0.32;;;;;;;35.07;27.83;96969.38;5063246;28;20513;-78
2022/09/15 10:42:00;;;;;;;0.43;0.25;;;;;;;34.73;28.96;96970.97;5059076;28;20032;-78
2022/09/15 10:44:47;;;;;;;0.25;0.20;;;;;;;35.03;28.89;96963.16;5073235;28;20083;-78
2022/09/15 10:47:48;;;;;;;0.50;0.20;;;;;;;35.07;28.82;96963.66;5068372;28;20087;-78
2022/09/15 10:50:29;;;;;;;0.22;0.22;;;;;;;34.21;31.14;96959.78;5056731;28;20124;-77
2022/09/15 10:53:02;;;;;;;0.32;0.30;;;;;;;34.01;29.36;96960.16;5055300;28;20382;-77
2022/09/15 10:56:09;;;;;;;0.50;0.38;;;;;;;33.82;28.83;96948.63;5072172;28;20036;-77
2022/09/15 10:58:57;;;;;;;0.40;0.40;;;;;;;33.38;29.47;96957.38;5073621;28;20041;-77
2022/09/15 11:01:29;;;;;;;0.47;0.47;;;;;;;33.92;29.45;96957.63;5072500;28;20044;-77
2022/09/15 11:03:55;;;;;;;0.65;0.45;;;;;;;33.73;29.04;96957.50;5068298;28;20041;-77
2022/09/15 11:06:44;;;;;;;0.50;0.50;;;;;;;34.45;28.36;96948.41;5053967;28;20035;-78
2022/09/15 11:09:19;;;;;;;0.68;0.63;;;;;;;34.68;28.64;96949.03;5068963;28;20028;-78
2022/09/15 11:12:36;;;;;;;1.60;0.60;;;;;;;34.46;26.08;96949.19;5073381;28;20454;-78
2022/09/15 11:15:24;;;;;;;0.70;0.60;;;;;;;35.41;27.43;96950.50;4990325;28;20038;-78
2022/09/15 11:18:05;;;;;;;0.70;0.70;;;;;;;35.15;27.78;96944.59;5068909;28;20044;-78
2022/09/15 11:20:36;;;;;;;0.70;0.70;;;;;;;34.59;29.77;96952.19;5072765;28;20060;-78
2022/09/15 11:23:10;;;;;;;0.70;0.70;;;;;;;33.66;31.18;96945.88;5070758;28;20040;-77
2022/09/15 11:25:44;;;;;;;0.80;0.80;;;;;;;33.43;29.98;96956.59;5071840;28;20041;-77
2022/09/15 11:28:22;;;;;;;0.80;0.80;;;;;;;34.01;30.44;96948.75;5072429;28;20182;-78
2022/09/15 11:31:20;;;;;;;0.80;0.80;;;;;;;34.51;26.61;96946.31;5072677;28;20021;-78
2022/09/15 11:34:03;;;;;;;0.80;0.80;;;;;;;34.78;27.79;96935.16;5069425;28;20453;-78
2022/09/15 11:36:36;;;;;;;0.77;0.70;;;;;;;34.96;27.17;96937.31;5058715;28;20056;-77
2022/09/15 11:39:23;;;;;;;0.90;0.70;;;;;;;34.78;26.72;96923.75;5068860;28;20391;-78
2022/09/15 11:42:04;;;;;;;0.47;0.47;;;;;;;35.16;26.99;96937.59;5069840;28;20367;-77
2022/09/15 11:44:42;;;;;;;0.60;0.60;;;;;;;35.10;27.24;96921.88;5072720;28;20037;-77
2022/09/15 11:47:30;;;;;;;1.02;0.57;;;;;;;34.79;28.04;96925.31;5071999;28;20060;-77
2022/09/15 11:49:56;;;;;;;0.52;0.52;;;;;;;34.69;27.70;96914.25;5059443;28;20045;-78
2022/09/15 11:52:37;;;;;;;0.50;0.50;;;;;;;34.74;28.05;96913.44;5059579;28;20046;-77
2022/09/15 11:55:15;;;;;;;0.50;0.50;;;;;;;35.56;27.55;96918.69;5072907;28;20127;-78
2022/09/15 11:57:49;;;;;;;0.65;0.65;;;;;;;35.60;26.41;96921.22;5055278;28;20482;-77
2022/09/15 12:00:15;;;;;;;0.90;0.50;;;;;;;35.80;26.17;96909.25;5052699;28;20167;-78